Time;durP1;ratioP1;P1;durP2;ratioP2;P2;SDS_P1;SDS_P2;PMS_P1;PMS_P2;Temp;Humidity;BMP_temperature;BMP_pressure;BME280_temperature;BME280_humidity;BME280_pressure;Samples;Min_cycle;Max_cycle;Signal;HPM_P1;HPM_P2
2022/09/08 00:02:24;;;;;;;11.5;16.8;;;;;;;12.5;100;98450;;;;
2022/09/08 00:13:23;;;;;;;11.5;16.8;;;;;;;12.4;100;98440;;;;
2022/09/08 00:24:23;;;;;;;11.5;16.8;;;;;;;12.4;100;98450;;;;
2022/09/08 00:35:23;;;;;;;10.9;14.9;;;;;;;12.2;100;98450;;;;
2022/09/08 00:45:23;;;;;;;10.9;14.9;;;;;;;12.2;100;98440;;;;
2022/09/08 00:55:23;;;;;;;11.4;17.1;;;;;;;12.2;100;98440;;;;
2022/09/08 01:05:23;;;;;;;11.4;17.1;;;;;;;12.1;100;98440;;;;
2022/09/08 01:15:23;;;;;;;11.4;17.1;;;;;;;12;100;98440;;;;
2022/09/08 01:26:23;;;;;;;11.1;15.4;;;;;;;11.9;100;98430;;;;
2022/09/08 01:36:23;;;;;;;11.1;15.4;;;;;;;12.1;100;98430;;;;
2022/09/08 01:47:23;;;;;;;11.1;15.4;;;;;;;12;100;98420;;;;
2022/09/08 01:57:23;;;;;;;11.4;17;;;;;;;11.9;100;98410;;;;
2022/09/08 02:08:23;;;;;;;11.4;17;;;;;;;11.7;100;98420;;;;
2022/09/08 02:18:23;;;;;;;11.4;17;;;;;;;11.3;100;98410;;;;
2022/09/08 02:29:23;;;;;;;10.5;13.4;;;;;;;11.3;100;98410;;;;
2022/09/08 02:39:23;;;;;;;10.5;13.4;;;;;;;11.1;100;98410;;;;
2022/09/08 02:49:23;;;;;;;10.5;13.4;;;;;;;11.2;100;98390;;;;
2022/09/08 03:00:30;;;;;;;10.2;14.6;;;;;;;10.8;100;98370;;;;
2022/09/08 03:11:23;;;;;;;10.2;14.6;;;;;;;10.8;100;98360;;;;
2022/09/08 03:21:23;;;;;;;10.2;14.6;;;;;;;10.9;100;98360;;;;
2022/09/08 03:32:23;;;;;;;9.2;12.4;;;;;;;10.6;100;98370;;;;
2022/09/08 03:42:23;;;;;;;9.2;12.4;;;;;;;10.8;100;98370;;;;
2022/09/08 03:53:23;;;;;;;9.2;12.4;;;;;;;10.8;100;98370;;;;
2022/09/08 04:03:23;;;;;;;9.4;17.1;;;;;;;10.7;100;98380;;;;
2022/09/08 04:14:23;;;;;;;9.4;17.1;;;;;;;10.4;100;98360;;;;
2022/09/08 04:24:23;;;;;;;9.4;17.1;;;;;;;10.6;100;98370;;;;
2022/09/08 04:35:23;;;;;;;9.3;17.5;;;;;;;10.5;100;98370;;;;
2022/09/08 04:46:23;;;;;;;9.3;17.5;;;;;;;10.7;100;98370;;;;
2022/09/08 04:56:23;;;;;;;9.2;14;;;;;;;10.9;100;98360;;;;
2022/09/08 05:06:23;;;;;;;9.2;14;;;;;;;11.1;100;98360;;;;
2022/09/08 05:16:24;;;;;;;9.2;14;;;;;;;11.4;100;98360;;;;
2022/09/08 05:27:23;;;;;;;9.3;17;;;;;;;11.7;100;98360;;;;
2022/09/08 05:37:23;;;;;;;9.3;17;;;;;;;11.9;100;98370;;;;
2022/09/08 05:47:23;;;;;;;9.3;17;;;;;;;12.3;100;98380;;;;
2022/09/08 05:57:23;;;;;;;8.5;17.7;;;;;;;12.5;100;98370;;;;
2022/09/08 06:08:23;;;;;;;8.5;17.7;;;;;;;12.8;100;98360;;;;
2022/09/08 06:18:25;;;;;;;8.5;17.7;;;;;;;13.1;100;98360;;;;
2022/09/08 06:28:23;;;;;;;9.8;17.8;;;;;;;13.5;100;98350;;;;
2022/09/08 06:39:23;;;;;;;9.8;17.8;;;;;;;13.8;100;98350;;;;
2022/09/08 06:49:23;;;;;;;9.8;17.8;;;;;;;14.2;100;98360;;;;
2022/09/08 06:59:23;;;;;;;9.8;19.5;;;;;;;14.6;100;98350;;;;
2022/09/08 07:10:23;;;;;;;9.8;19.5;;;;;;;15.4;100;98330;;;;
2022/09/08 07:21:23;;;;;;;9.8;19.5;;;;;;;15.8;100;98330;;;;
2022/09/08 07:31:23;;;;;;;10.8;17;;;;;;;15.9;100;98330;;;;
2022/09/08 07:42:23;;;;;;;10.8;17;;;;;;;16.4;100;98320;;;;
2022/09/08 07:53:23;;;;;;;10.8;17;;;;;;;17.1;100;98320;;;;
2022/09/08 08:03:23;;;;;;;10.3;17.4;;;;;;;17.7;100;98320;;;;
2022/09/08 08:14:23;;;;;;;10.3;17.4;;;;;;;18;100;98320;;;;
2022/09/08 08:25:23;;;;;;;11.1;16.8;;;;;;;18.6;100;98300;;;;
2022/09/08 08:36:23;;;;;;;11.1;16.8;;;;;;;19;100;98290;;;;
2022/09/08 08:46:23;;;;;;;11.1;16.8;;;;;;;19.3;100;98280;;;;
2022/09/08 08:57:23;;;;;;;9.8;15.6;;;;;;;19.6;100;98270;;;;
2022/09/08 09:07:23;;;;;;;9.8;15.6;;;;;;;19.7;100;98260;;;;
2022/09/08 09:18:23;;;;;;;9.8;15.6;;;;;;;20.5;100;98260;;;;
2022/09/08 09:29:24;;;;;;;10.4;16.1;;;;;;;20.9;100;98260;;;;
2022/09/08 09:39:23;;;;;;;10.4;16.1;;;;;;;21.4;100;98240;;;;
2022/09/08 09:50:23;;;;;;;10.4;16.1;;;;;;;21.8;100;98240;;;;
2022/09/08 10:01:23;;;;;;;8.5;13.4;;;;;;;22.4;100;98240;;;;
2022/09/08 10:11:23;;;;;;;8.5;13.4;;;;;;;22.4;100;98230;;;;
2022/09/08 10:21:23;;;;;;;8.5;13.4;;;;;;;23;100;98220;;;;
2022/09/08 10:32:23;;;;;;;7.9;11.9;;;;;;;23.4;100;98210;;;;
2022/09/08 10:43:23;;;;;;;7.9;11.9;;;;;;;23.7;100;98200;;;;
2022/09/08 10:53:23;;;;;;;7.9;11.9;;;;;;;24.2;100;98200;;;;
2022/09/08 11:03:23;;;;;;;7.7;11.7;;;;;;;24.4;100;98190;;;;
2022/09/08 11:14:23;;;;;;;7.7;11.7;;;;;;;24.9;100;98170;;;;
2022/09/08 11:24:24;;;;;;;8.2;12.4;;;;;;;25.2;100;98160;;;;
2022/09/08 11:35:23;;;;;;;8.2;12.4;;;;;;;25.5;100;98150;;;;
2022/09/08 11:46:23;;;;;;;8.2;12.4;;;;;;;25.4;100;98140;;;;
2022/09/08 11:57:23;;;;;;;6.2;8.6;;;;;;;26.2;100;98130;;;;
2022/09/08 12:08:23;;;;;;;6.2;8.6;;;;;;;26.4;100;98130;;;;
2022/09/08 12:18:23;;;;;;;6.2;8.6;;;;;;;26.7;100;98120;;;;
2022/09/08 12:28:23;;;;;;;6.9;9.5;;;;;;;26.9;100;98110;;;;
2022/09/08 12:39:23;;;;;;;6.9;9.5;;;;;;;26.9;100;98100;;;;
2022/09/08 12:49:23;;;;;;;6.9;9.5;;;;;;;27.2;100;98090;;;;
2022/09/08 12:59:23;;;;;;;7.1;12.4;;;;;;;27.3;100;98070;;;;
2022/09/08 13:10:24;;;;;;;7.1;12.4;;;;;;;27.7;100;98060;;;;
2022/09/08 13:20:23;;;;;;;7.1;12.4;;;;;;;27.6;100;98060;;;;
2022/09/08 13:30:23;;;;;;;7.4;11.3;;;;;;;27.5;100;98050;;;;
2022/09/08 13:41:23;;;;;;;7.4;11.3;;;;;;;27;100;98030;;;;
2022/09/08 13:51:23;;;;;;;7.4;11.3;;;;;;;26.3;100;98020;;;;
2022/09/08 14:02:23;;;;;;;7.4;12.6;;;;;;;26.4;100;98000;;;;
2022/09/08 14:13:23;;;;;;;7.4;12.6;;;;;;;27.1;100;97980;;;;
2022/09/08 14:23:23;;;;;;;7.4;12.6;;;;;;;26.1;100;97960;;;;
2022/09/08 14:34:23;;;;;;;7.4;12;;;;;;;25.7;100;97960;;;;
2022/09/08 14:45:23;;;;;;;7.4;12;;;;;;;26.1;100;97950;;;;
2022/09/08 14:55:23;;;;;;;6.2;9.1;;;;;;;26.9;100;97940;;;;
2022/09/08 15:06:23;;;;;;;6.2;9.1;;;;;;;27;100;97940;;;;
2022/09/08 15:17:24;;;;;;;6.2;9.1;;;;;;;26.4;100;97920;;;;
2022/09/08 15:28:23;;;;;;;6.9;10.4;;;;;;;25.9;100;97920;;;;
2022/09/08 15:39:23;;;;;;;6.9;10.4;;;;;;;25.5;100;97910;;;;
2022/09/08 15:49:23;;;;;;;6.9;10.4;;;;;;;25.4;100;97910;;;;
2022/09/08 16:00:23;;;;;;;7.3;10;;;;;;;25.2;100;97900;;;;
2022/09/08 16:10:25;;;;;;;7.3;10;;;;;;;25;100;97890;;;;
2022/09/08 16:21:26;;;;;;;7.3;10;;;;;;;24.6;100;97870;;;;
2022/09/08 16:31:25;;;;;;;8.2;11.3;;;;;;;24.2;100;97870;;;;
2022/09/08 16:41:23;;;;;;;8.2;11.3;;;;;;;24.1;100;97880;;;;
2022/09/08 16:52:23;;;;;;;8.2;11.3;;;;;;;23.7;100;97870;;;;
2022/09/08 17:03:23;;;;;;;12.9;19.7;;;;;;;23.2;100;97860;;;;
2022/09/08 17:14:24;;;;;;;12.9;19.7;;;;;;;22.7;100;97860;;;;
2022/09/08 17:24:24;;;;;;;12.9;19.7;;;;;;;22.5;100;97860;;;;
2022/09/08 17:35:23;;;;;;;13.8;18.9;;;;;;;22.1;100;97870;;;;
2022/09/08 17:45:24;;;;;;;13.8;18.9;;;;;;;22;100;97880;;;;
2022/09/08 17:56:23;;;;;;;14.1;17.2;;;;;;;21.7;100;97930;;;;
2022/09/08 18:07:23;;;;;;;14.1;17.2;;;;;;;21.8;100;98000;;;;
2022/09/08 18:17:23;;;;;;;14.1;17.2;;;;;;;21.7;100;98020;;;;
2022/09/08 18:28:23;;;;;;;7.8;12.2;;;;;;;20.4;100;98010;;;;
2022/09/08 18:38:24;;;;;;;7.8;12.2;;;;;;;19.6;100;98020;;;;
2022/09/08 18:49:23;;;;;;;7.8;12.2;;;;;;;19.1;100;98040;;;;
2022/09/08 18:59:23;;;;;;;5.5;9.2;;;;;;;19;100;98130;;;;
2022/09/08 19:10:24;;;;;;;5.5;9.2;;;;;;;19;100;98130;;;;
2022/09/08 19:21:23;;;;;;;5.5;9.2;;;;;;;18.7;100;98150;;;;
2022/09/08 19:31:23;;;;;;;6.1;9.3;;;;;;;18.7;100;98190;;;;
2022/09/08 19:42:24;;;;;;;6.1;9.3;;;;;;;18.8;100;98190;;;;
2022/09/08 19:53:24;;;;;;;6.1;9.3;;;;;;;18.8;100;98170;;;;
2022/09/08 20:04:24;;;;;;;6.5;10.8;;;;;;;18.7;100;98170;;;;
2022/09/08 20:14:23;;;;;;;6.5;10.8;;;;;;;18.7;100;98150;;;;
2022/09/08 20:25:23;;;;;;;6;10;;;;;;;18.7;100;98160;;;;
2022/09/08 20:36:23;;;;;;;6;10;;;;;;;18.5;100;98160;;;;
2022/09/08 20:46:24;;;;;;;6;10;;;;;;;18.2;100;98130;;;;
2022/09/08 20:57:24;;;;;;;4.5;8;;;;;;;18.2;100;98140;;;;
2022/09/08 21:08:23;;;;;;;4.5;8;;;;;;;18;100;98150;;;;
2022/09/08 21:18:24;;;;;;;4.5;8;;;;;;;18;100;98160;;;;
2022/09/08 21:28:23;;;;;;;4.2;7.6;;;;;;;18;100;98170;;;;
2022/09/08 21:38:23;;;;;;;4.2;7.6;;;;;;;17.9;100;98180;;;;
2022/09/08 21:49:24;;;;;;;4.2;7.6;;;;;;;18;100;98190;;;;
2022/09/08 22:00:23;;;;;;;3.3;5.6;;;;;;;18;100;98200;;;;
2022/09/08 22:11:24;;;;;;;3.3;5.6;;;;;;;18;100;98210;;;;
2022/09/08 22:21:23;;;;;;;3.3;5.6;;;;;;;18.1;100;98210;;;;
2022/09/08 22:31:25;;;;;;;3.6;6.8;;;;;;;18.1;100;98210;;;;
2022/09/08 22:42:24;;;;;;;3.6;6.8;;;;;;;18;100;98220;;;;
2022/09/08 22:52:23;;;;;;;3.6;6.8;;;;;;;17.9;100;98210;;;;
2022/09/08 23:02:23;;;;;;;5;8.2;;;;;;;17.9;100;98210;;;;
2022/09/08 23:13:23;;;;;;;5;8.2;;;;;;;17.8;100;98210;;;;
2022/09/08 23:23:23;;;;;;;5;8.2;;;;;;;17.6;100;98210;;;;
2022/09/08 23:34:24;;;;;;;3.5;5.2;;;;;;;17.7;100;98210;;;;
2022/09/08 23:44:23;;;;;;;3.5;5.2;;;;;;;17.6;100;98210;;;;
2022/09/08 23:55:23;;;;;;;3.6;5.6;;;;;;;17.7;100;98220;;;;
